Griffin, Georgia
Current Conditions -  °F | °C
As of 5:53 AM on Saturday 20 Dec 2014 (Local Time) from KFFC Reporting Station
Light Rain Light Rain  
Wind Chill: 42°   Ceiling: 6000
Heat Index: 42°   Visibility: 3mi
Dew Point: 41°   Wind: 0mph
Humidity: 96%   Direction: NA
Pressure: 30.15"   Gusts: NA
Location:  33.25°N, 84.26°W
Report Text: KFFC 201053Z AUTO 00000KT 3SM -RA BR FEW009 BKN060 OVC075 06/05 A3015 RMK AO2 SLP212 P0006 T00560050
Loading
Personal Weather Stations






























Interactive Weather Map New forecast layout! Learn more

10-Day Weather Forecast

Advertisements
Track Severe Weather on mobile